createdAt,value
2023-01-15T00:01:27.405Z,6.39
2023-01-15T00:04:03.950Z,6.42
2023-01-15T00:06:40.258Z,6.44
2023-01-15T00:09:17.931Z,6.46
2023-01-15T00:11:51.377Z,6.47
2023-01-15T00:14:25.020Z,6.49
2023-01-15T00:16:59.055Z,6.49
2023-01-15T00:19:32.794Z,6.48
2023-01-15T00:22:06.579Z,6.47
2023-01-15T00:24:57.743Z,6.47
2023-01-15T00:27:41.743Z,6.46
2023-01-15T00:30:17.698Z,6.44
2023-01-15T00:32:51.294Z,6.42
2023-01-15T00:35:26.681Z,6.39
2023-01-15T00:38:00.817Z,6.37
2023-01-15T00:40:34.327Z,6.34
2023-01-15T00:43:08.551Z,6.31
2023-01-15T00:45:43.033Z,6.27
2023-01-15T00:48:16.978Z,6.25
2023-01-15T00:50:52.262Z,6.23
2023-01-15T00:53:26.089Z,6.22
2023-01-15T00:56:00.189Z,6.22
2023-01-15T00:58:35.984Z,6.22
2023-01-15T01:01:10.332Z,6.19
2023-01-15T01:03:49.208Z,6.17
2023-01-15T01:06:23.965Z,6.14
2023-01-15T01:08:57.531Z,6.12
2023-01-15T01:11:34.709Z,6.10
2023-01-15T01:14:08.602Z,6.08
2023-01-15T01:16:43.887Z,6.04
2023-01-15T01:19:20.402Z,6.03
2023-01-15T01:21:55.113Z,5.98
2023-01-15T01:24:28.680Z,5.97
2023-01-15T01:27:02.278Z,5.96
2023-01-15T01:29:35.731Z,5.95
2023-01-15T01:32:10.445Z,5.94
2023-01-15T01:34:44.448Z,5.92
2023-01-15T01:37:17.962Z,5.88
2023-01-15T01:39:52.963Z,5.88
2023-01-15T01:42:27.135Z,5.88
2023-01-15T01:45:14.426Z,5.88
2023-01-15T01:47:49.173Z,5.85
2023-01-15T01:50:23.457Z,5.83
2023-01-15T01:53:06.112Z,5.83
2023-01-15T01:55:40.710Z,5.83
2023-01-15T01:58:16.591Z,5.80
2023-01-15T02:00:52.607Z,5.75
2023-01-15T02:03:32.982Z,5.70
2023-01-15T02:06:11.803Z,5.66
2023-01-15T02:08:45.694Z,5.63
2023-01-15T02:11:21.957Z,5.61
2023-01-15T02:14:01.384Z,5.58
2023-01-15T02:16:42.139Z,5.57
2023-01-15T02:19:29.758Z,5.58
2023-01-15T02:22:13.432Z,5.60
2023-01-15T02:24:59.306Z,5.61
2023-01-15T02:27:34.334Z,5.62
2023-01-15T02:30:15.945Z,5.62
2023-01-15T02:33:02.792Z,5.64
2023-01-15T02:35:38.729Z,5.63
2023-01-15T02:38:17.163Z,5.64
2023-01-15T02:40:55.641Z,5.63
2023-01-15T02:43:36.444Z,5.64
2023-01-15T02:46:11.585Z,5.64
2023-01-15T02:48:47.872Z,5.64
2023-01-15T02:51:25.817Z,5.65
2023-01-15T02:54:04.066Z,5.65
2023-01-15T02:56:42.258Z,5.63
2023-01-15T02:59:19.948Z,5.60
2023-01-15T03:01:59.098Z,5.58
2023-01-15T03:04:39.540Z,5.57
2023-01-15T03:07:21.125Z,5.58
2023-01-15T03:09:56.427Z,5.61
2023-01-15T03:12:58.343Z,5.64
2023-01-15T03:15:59.033Z,5.63
2023-01-15T03:18:37.715Z,5.65
2023-01-15T03:21:15.227Z,5.67
2023-01-15T03:23:54.268Z,5.67
2023-01-15T03:26:29.267Z,5.69
2023-01-15T03:29:06.168Z,5.71
2023-01-15T03:31:40.674Z,5.71
2023-01-15T03:34:14.916Z,5.71
2023-01-15T03:36:49.927Z,5.72
2023-01-15T03:39:25.171Z,5.74
2023-01-15T03:42:18.364Z,5.74
2023-01-15T03:45:03.032Z,5.73
2023-01-15T03:47:48.198Z,5.73
2023-01-15T03:50:34.450Z,5.76
2023-01-15T03:53:17.869Z,5.78
2023-01-15T03:56:17.960Z,5.78
2023-01-15T03:59:00.276Z,5.75
2023-01-15T04:01:44.419Z,5.72
2023-01-15T04:04:19.735Z,5.71
2023-01-15T04:06:54.226Z,5.71
2023-01-15T04:09:29.157Z,5.71
2023-01-15T04:12:05.950Z,5.71
2023-01-15T04:14:44.207Z,5.73
2023-01-15T04:17:23.855Z,5.75
2023-01-15T04:19:58.356Z,5.77
2023-01-15T04:22:32.521Z,5.80
2023-01-15T04:25:07.016Z,5.82
2023-01-15T04:27:40.600Z,5.81
2023-01-15T04:30:17.706Z,5.79
2023-01-15T04:32:53.867Z,5.80
2023-01-15T04:35:27.531Z,5.81
2023-01-15T04:38:02.200Z,5.76
2023-01-15T04:40:53.759Z,5.73
2023-01-15T04:43:45.252Z,5.73
2023-01-15T04:46:22.286Z,5.74
2023-01-15T04:48:56.329Z,5.78
2023-01-15T04:51:30.114Z,5.78
2023-01-15T04:54:05.870Z,5.79
2023-01-15T04:56:44.035Z,5.80
2023-01-15T04:59:18.588Z,5.81
2023-01-15T05:02:03.101Z,5.84
2023-01-15T05:04:39.195Z,5.86
2023-01-15T05:07:13.213Z,5.88
2023-01-15T05:09:47.944Z,5.88
2023-01-15T05:12:21.628Z,5.91
2023-01-15T05:14:55.076Z,5.93
2023-01-15T05:17:28.483Z,5.97
2023-01-15T05:20:02.425Z,6.01
2023-01-15T05:22:36.583Z,6.03
2023-01-15T05:25:10.891Z,6.07
2023-01-15T05:27:45.057Z,6.09
2023-01-15T05:30:19.820Z,6.11
2023-01-15T05:32:53.562Z,6.12
2023-01-15T05:35:27.147Z,6.13
2023-01-15T05:38:00.642Z,6.15
2023-01-15T05:40:34.141Z,6.18
2023-01-15T05:43:08.827Z,6.21
2023-01-15T05:45:42.420Z,6.23
2023-01-15T05:48:16.345Z,6.26
2023-01-15T05:50:49.951Z,6.28
2023-01-15T05:53:23.660Z,6.29
2023-01-15T05:55:57.049Z,6.31
2023-01-15T05:58:30.967Z,6.27
2023-01-15T06:01:07.628Z,6.27
2023-01-15T06:03:42.246Z,6.28
2023-01-15T06:06:19.172Z,6.28
2023-01-15T06:08:52.974Z,6.28
2023-01-15T06:11:26.500Z,6.25
2023-01-15T06:14:00.523Z,6.14
2023-01-15T06:16:34.639Z,6.07
2023-01-15T06:19:09.553Z,6.03
2023-01-15T06:21:43.459Z,6.01
2023-01-15T06:24:18.399Z,6.03
2023-01-15T06:26:52.229Z,6.05
2023-01-15T06:29:26.069Z,6.07
2023-01-15T06:31:59.680Z,6.08
2023-01-15T06:34:33.673Z,6.10
2023-01-15T06:37:07.834Z,6.13
2023-01-15T06:39:41.522Z,6.15
2023-01-15T06:42:32.252Z,6.17
2023-01-15T06:45:22.651Z,6.14
2023-01-15T06:47:56.476Z,6.06
2023-01-15T06:50:30.323Z,5.94
2023-01-15T06:53:04.220Z,5.81
2023-01-15T06:55:37.774Z,5.73
2023-01-15T06:58:11.547Z,5.62
2023-01-15T07:00:47.385Z,5.50
2023-01-15T07:03:21.285Z,5.42
2023-01-15T07:05:54.696Z,5.37
2023-01-15T07:08:29.477Z,5.30
2023-01-15T07:11:08.201Z,5.26
2023-01-15T07:13:42.167Z,5.16
2023-01-15T07:16:28.822Z,5.09
2023-01-15T07:19:02.730Z,5.07
2023-01-15T07:21:36.821Z,5.06
2023-01-15T07:24:12.464Z,5.05
2023-01-15T07:26:47.188Z,5.03
2023-01-15T07:29:21.032Z,5.02
2023-01-15T07:31:55.755Z,5.02
2023-01-15T07:34:29.258Z,5.03
2023-01-15T07:37:02.963Z,5.03
2023-01-15T07:39:36.720Z,5.04
2023-01-15T07:42:29.089Z,5.05
2023-01-15T07:45:20.193Z,5.07
2023-01-15T07:48:27.728Z,5.09
2023-01-15T07:51:02.182Z,5.10
2023-01-15T07:53:35.988Z,5.14
2023-01-15T07:56:10.582Z,5.13
2023-01-15T07:58:49.810Z,5.17
2023-01-15T08:01:23.901Z,5.20
2023-01-15T08:03:57.870Z,5.22
2023-01-15T08:06:31.491Z,5.25
2023-01-15T08:09:05.855Z,5.29
2023-01-15T08:11:57.402Z,5.31
2023-01-15T08:14:48.840Z,5.33
2023-01-15T08:17:22.644Z,5.38
2023-01-15T08:19:56.286Z,5.42
2023-01-15T08:22:30.176Z,5.44
2023-01-15T08:25:04.126Z,5.49
2023-01-15T08:27:37.835Z,5.53
2023-01-15T08:30:15.224Z,5.58
2023-01-15T08:32:49.028Z,5.62
2023-01-15T08:35:22.918Z,5.64
2023-01-15T08:37:56.694Z,5.66
2023-01-15T08:40:30.612Z,5.69
2023-01-15T08:43:04.309Z,5.73
2023-01-15T08:45:38.453Z,5.78
2023-01-15T08:48:12.299Z,5.83
2023-01-15T08:50:46.217Z,5.84
2023-01-15T08:53:20.625Z,5.86
2023-01-15T08:55:54.702Z,5.87
2023-01-15T08:58:28.950Z,5.89
2023-01-15T09:01:08.804Z,5.89
2023-01-15T09:03:42.992Z,5.88
2023-01-15T09:06:17.041Z,5.87
2023-01-15T09:08:50.829Z,5.87
2023-01-15T09:11:24.695Z,5.84
2023-01-15T09:13:58.595Z,5.81
2023-01-15T09:16:33.381Z,5.81
2023-01-15T09:19:08.032Z,5.82
2023-01-15T09:21:41.727Z,5.81
2023-01-15T09:24:15.712Z,5.82
2023-01-15T09:26:49.384Z,5.82
2023-01-15T09:29:23.002Z,5.82
2023-01-15T09:31:57.016Z,5.79
2023-01-15T09:34:30.436Z,5.77
2023-01-15T09:37:03.984Z,5.80
2023-01-15T09:39:38.760Z,5.84
2023-01-15T09:42:30.568Z,5.88
2023-01-15T09:45:18.795Z,5.89
2023-01-15T09:48:18.154Z,5.90
2023-01-15T09:51:07.711Z,5.90
2023-01-15T09:54:20.476Z,5.85
2023-01-15T09:56:56.196Z,5.82
2023-01-15T09:59:36.521Z,5.83
2023-01-15T10:02:21.976Z,5.88
2023-01-15T10:05:02.661Z,5.89
2023-01-15T10:07:43.325Z,5.87
2023-01-15T10:10:21.599Z,5.88
2023-01-15T10:13:02.480Z,5.88
2023-01-15T10:15:43.020Z,5.91
2023-01-15T10:18:20.708Z,5.96
2023-01-15T10:21:03.538Z,5.96
2023-01-15T10:23:45.724Z,5.96
2023-01-15T10:26:33.645Z,5.94
2023-01-15T10:29:16.216Z,5.97
2023-01-15T10:32:02.689Z,6.04
2023-01-15T10:35:06.438Z,6.11
2023-01-15T10:37:44.992Z,6.12
2023-01-15T10:40:33.766Z,6.15
2023-01-15T10:43:14.773Z,6.16
2023-01-15T10:45:53.042Z,6.16
2023-01-15T10:48:32.652Z,6.17
2023-01-15T10:51:15.932Z,6.20
2023-01-15T10:53:53.961Z,6.21
2023-01-15T10:56:37.429Z,6.24
2023-01-15T10:59:18.426Z,6.29
2023-01-15T11:01:55.774Z,6.31
2023-01-15T11:04:33.481Z,6.31
2023-01-15T11:07:11.397Z,6.31
2023-01-15T11:09:45.994Z,6.31
2023-01-15T11:12:43.453Z,6.32
2023-01-15T11:15:45.178Z,6.32
2023-01-15T11:18:46.524Z,6.31
2023-01-15T11:21:23.240Z,6.32
2023-01-15T11:24:00.228Z,6.30
2023-01-15T11:26:35.891Z,6.25
2023-01-15T11:29:24.416Z,6.26
2023-01-15T11:31:58.247Z,6.26
2023-01-15T11:34:32.302Z,6.28
2023-01-15T11:37:09.186Z,6.33
2023-01-15T11:39:53.670Z,6.38
2023-01-15T11:42:45.289Z,6.44
2023-01-15T11:45:39.802Z,6.46
2023-01-15T11:48:38.117Z,6.45
2023-01-15T11:51:15.617Z,6.43
2023-01-15T11:53:52.237Z,6.44
2023-01-15T11:56:31.759Z,6.42
2023-01-15T11:59:15.141Z,6.43
2023-01-15T12:01:59.796Z,6.47
2023-01-15T12:04:47.018Z,6.47
2023-01-15T12:07:24.672Z,6.49
2023-01-15T12:10:19.503Z,6.51
2023-01-15T12:13:08.017Z,6.54
2023-01-15T12:15:44.429Z,6.53
2023-01-15T12:18:51.921Z,6.55
2023-01-15T12:21:51.534Z,6.57
2023-01-15T12:24:51.609Z,6.57
2023-01-15T12:27:37.932Z,6.55
2023-01-15T12:30:21.253Z,6.58
2023-01-15T12:33:02.636Z,6.60
2023-01-15T12:35:39.804Z,6.62
2023-01-15T12:38:23.261Z,6.65
2023-01-15T12:41:02.291Z,6.69
2023-01-15T12:43:53.311Z,6.74
2023-01-15T12:46:33.055Z,6.77
2023-01-15T12:49:16.564Z,6.82
2023-01-15T12:51:57.058Z,6.88
2023-01-15T12:54:38.311Z,6.94
2023-01-15T12:57:18.360Z,6.99
2023-01-15T12:59:56.094Z,7.05
2023-01-15T13:02:37.843Z,7.09
2023-01-15T13:05:22.538Z,7.15
2023-01-15T13:08:03.295Z,7.18
2023-01-15T13:10:37.368Z,7.23
2023-01-15T13:13:19.653Z,7.31
2023-01-15T13:16:14.525Z,7.35
2023-01-15T13:19:06.239Z,7.40
2023-01-15T13:21:42.979Z,7.47
2023-01-15T13:24:36.999Z,7.52
2023-01-15T13:27:27.692Z,7.59
2023-01-15T13:30:23.429Z,7.66
2023-01-15T13:33:03.178Z,7.72
2023-01-15T13:35:44.376Z,7.80
2023-01-15T13:38:22.218Z,7.88
2023-01-15T13:40:58.483Z,7.95
2023-01-15T13:43:39.660Z,8.03
2023-01-15T13:46:21.478Z,8.12
2023-01-15T13:48:56.107Z,8.19
2023-01-15T13:51:38.164Z,8.27
2023-01-15T13:54:17.255Z,8.36
2023-01-15T13:56:51.135Z,8.45
2023-01-15T13:59:44.550Z,8.52
2023-01-15T14:02:30.372Z,8.57
2023-01-15T14:05:26.640Z,8.59
2023-01-15T14:08:02.231Z,8.60
2023-01-15T14:10:43.597Z,8.63
2023-01-15T14:13:45.107Z,8.66
2023-01-15T14:16:29.612Z,8.69
2023-01-15T14:19:31.772Z,8.70
2023-01-15T14:22:21.794Z,8.71
2023-01-15T14:25:21.756Z,8.72
2023-01-15T14:28:09.523Z,8.73
2023-01-15T14:31:08.074Z,8.74
2023-01-15T14:33:55.590Z,8.77
2023-01-15T14:36:37.303Z,8.78
2023-01-15T14:39:39.414Z,8.79
2023-01-15T14:42:36.959Z,8.79
2023-01-15T14:45:27.624Z,8.79
2023-01-15T14:48:03.498Z,8.78
2023-01-15T14:50:40.718Z,8.77
2023-01-15T14:53:36.738Z,8.79
2023-01-15T14:56:21.298Z,8.78
2023-01-15T14:59:02.114Z,8.79
2023-01-15T15:01:47.898Z,8.81
2023-01-15T15:04:36.353Z,8.83
2023-01-15T15:07:16.239Z,8.84
2023-01-15T15:09:55.747Z,8.86
2023-01-15T15:12:40.134Z,8.87
2023-01-15T15:15:18.855Z,8.90
2023-01-15T15:17:59.073Z,8.91
2023-01-15T15:20:45.993Z,8.92
2023-01-15T15:23:29.225Z,8.93
2023-01-15T15:26:05.930Z,8.93
2023-01-15T15:28:40.650Z,8.93
2023-01-15T15:31:16.388Z,8.94
2023-01-15T15:33:50.467Z,8.96
2023-01-15T15:36:27.998Z,8.96
2023-01-15T15:39:04.053Z,8.98
2023-01-15T15:41:57.703Z,8.99
2023-01-15T15:45:00.136Z,9.00
2023-01-15T15:47:59.576Z,9.01
2023-01-15T15:50:39.504Z,9.00
2023-01-15T15:53:18.738Z,9.01
2023-01-15T15:55:53.610Z,9.00
2023-01-15T15:58:33.957Z,8.99
2023-01-15T16:01:13.143Z,8.97
2023-01-15T16:03:52.811Z,8.98
2023-01-15T16:06:29.071Z,8.98
2023-01-15T16:09:05.159Z,8.98
2023-01-15T16:11:42.091Z,8.95
2023-01-15T16:14:19.180Z,8.86
2023-01-15T16:16:56.776Z,8.78
2023-01-15T16:19:38.543Z,8.74
2023-01-15T16:22:20.757Z,8.68
2023-01-15T16:25:00.191Z,8.65
2023-01-15T16:27:38.732Z,8.61
2023-01-15T16:30:20.905Z,8.56
2023-01-15T16:33:07.631Z,8.55
2023-01-15T16:35:43.315Z,8.54
2023-01-15T16:38:23.151Z,8.55
2023-01-15T16:40:58.434Z,8.54
2023-01-15T16:43:51.617Z,8.49
2023-01-15T16:46:32.025Z,8.40
2023-01-15T16:49:28.581Z,8.32
2023-01-15T16:52:06.439Z,8.21
2023-01-15T16:54:52.438Z,8.06
2023-01-15T16:57:36.967Z,7.90
2023-01-15T17:00:33.593Z,7.77
2023-01-15T17:03:16.343Z,7.67
2023-01-15T17:05:58.755Z,7.60
2023-01-15T17:08:41.194Z,7.58
2023-01-15T17:11:24.553Z,7.59
2023-01-15T17:14:23.149Z,7.57
2023-01-15T17:17:27.951Z,7.55
2023-01-15T17:20:05.421Z,7.52
2023-01-15T17:22:47.904Z,7.52
2023-01-15T17:25:31.703Z,7.52
2023-01-15T17:28:13.713Z,7.52
2023-01-15T17:30:53.598Z,7.52
2023-01-15T17:33:31.870Z,7.53
2023-01-15T17:36:09.959Z,7.55
2023-01-15T17:38:46.355Z,7.56
2023-01-15T17:41:27.834Z,7.57
2023-01-15T17:44:05.702Z,7.61
2023-01-15T17:46:52.475Z,7.65
2023-01-15T17:49:31.537Z,7.69
2023-01-15T17:52:23.392Z,7.67
2023-01-15T17:55:19.038Z,7.65
2023-01-15T17:58:12.484Z,7.62
2023-01-15T18:01:06.906Z,7.61
2023-01-15T18:04:04.883Z,7.57
2023-01-15T18:06:45.949Z,7.53
2023-01-15T18:09:27.298Z,7.53
2023-01-15T18:12:03.923Z,7.52
2023-01-15T18:14:40.228Z,7.51
2023-01-15T18:17:16.024Z,7.49
2023-01-15T18:19:56.498Z,7.48
2023-01-15T18:22:32.700Z,7.50
2023-01-15T18:25:16.546Z,7.53
2023-01-15T18:27:55.353Z,7.54
2023-01-15T18:30:29.775Z,7.52
2023-01-15T18:33:06.457Z,7.49
2023-01-15T18:35:42.229Z,7.48
2023-01-15T18:38:17.675Z,7.50
2023-01-15T18:40:55.877Z,7.49
2023-01-15T18:44:06.564Z,7.52
2023-01-15T18:46:49.826Z,7.53
2023-01-15T18:49:26.918Z,7.53
2023-01-15T18:52:21.284Z,7.53
2023-01-15T18:54:57.995Z,7.49
2023-01-15T18:57:37.099Z,7.48
2023-01-15T19:00:19.104Z,7.49
2023-01-15T19:02:56.776Z,7.50
2023-01-15T19:05:33.934Z,7.49
2023-01-15T19:08:13.215Z,7.48
2023-01-15T19:10:50.823Z,7.51
2023-01-15T19:13:28.178Z,7.52
2023-01-15T19:16:22.200Z,7.51
2023-01-15T19:19:06.061Z,7.50
2023-01-15T19:21:47.910Z,7.50
2023-01-15T19:24:35.414Z,7.49
2023-01-15T19:27:24.795Z,7.48
2023-01-15T19:30:01.491Z,7.47
2023-01-15T19:32:37.811Z,7.45
2023-01-15T19:35:13.901Z,7.37
2023-01-15T19:37:54.248Z,7.26
2023-01-15T19:40:35.429Z,7.20
2023-01-15T19:43:29.990Z,7.19
2023-01-15T19:46:26.771Z,7.19
2023-01-15T19:49:20.621Z,7.19
2023-01-15T19:52:12.952Z,7.13
2023-01-15T19:55:00.667Z,7.08
2023-01-15T19:57:36.425Z,7.04
2023-01-15T20:00:20.394Z,6.99
2023-01-15T20:02:57.929Z,6.94
2023-01-15T20:05:35.544Z,6.94
2023-01-15T20:08:19.956Z,6.94
2023-01-15T20:11:04.555Z,6.92
2023-01-15T20:13:55.779Z,6.89
2023-01-15T20:16:32.275Z,6.85
2023-01-15T20:19:11.594Z,6.85
2023-01-15T20:21:50.029Z,6.83
2023-01-15T20:24:24.026Z,6.81
2023-01-15T20:26:59.507Z,6.80
2023-01-15T20:29:36.001Z,6.77
2023-01-15T20:32:15.795Z,6.76
2023-01-15T20:34:54.417Z,6.72
2023-01-15T20:37:31.316Z,6.68
2023-01-15T20:40:09.382Z,6.66
2023-01-15T20:43:03.939Z,6.68
2023-01-15T20:45:41.621Z,6.69
2023-01-15T20:48:33.415Z,6.70
2023-01-15T20:51:20.181Z,6.72
2023-01-15T20:53:56.706Z,6.71
2023-01-15T20:56:33.223Z,6.71
2023-01-15T20:59:11.764Z,6.73
2023-01-15T21:01:48.043Z,6.73
2023-01-15T21:04:26.330Z,6.75
2023-01-15T21:07:02.514Z,6.74
2023-01-15T21:09:37.743Z,6.74
2023-01-15T21:12:12.002Z,6.74
2023-01-15T21:14:47.091Z,6.76
2023-01-15T21:17:22.763Z,6.77
2023-01-15T21:19:58.828Z,6.78
2023-01-15T21:22:35.122Z,6.79
2023-01-15T21:25:13.759Z,6.79
2023-01-15T21:27:47.424Z,6.78
2023-01-15T21:30:21.387Z,6.77
2023-01-15T21:32:57.513Z,6.77
2023-01-15T21:35:32.107Z,6.77
2023-01-15T21:38:09.633Z,6.77
2023-01-15T21:40:43.987Z,6.77
2023-01-15T21:43:36.730Z,6.76
2023-01-15T21:46:10.847Z,6.77
2023-01-15T21:48:44.645Z,6.78
2023-01-15T21:51:18.359Z,6.78
2023-01-15T21:53:52.066Z,6.77
2023-01-15T21:56:25.417Z,6.75
2023-01-15T21:58:59.261Z,6.74
2023-01-15T22:01:33.235Z,6.76
2023-01-15T22:04:07.317Z,6.76
2023-01-15T22:06:41.087Z,6.78
2023-01-15T22:09:14.763Z,6.79
2023-01-15T22:11:49.474Z,6.79
2023-01-15T22:14:26.163Z,6.79
2023-01-15T22:17:01.732Z,6.79
2023-01-15T22:19:36.121Z,6.80
2023-01-15T22:22:11.787Z,6.81
2023-01-15T22:24:45.449Z,6.82
2023-01-15T22:27:21.053Z,6.81
2023-01-15T22:29:54.645Z,6.80
2023-01-15T22:32:28.273Z,6.80
2023-01-15T22:35:02.121Z,6.81
2023-01-15T22:37:35.824Z,6.82
2023-01-15T22:40:11.911Z,6.81
2023-01-15T22:42:45.389Z,6.79
2023-01-15T22:45:20.777Z,6.80
2023-01-15T22:47:54.791Z,6.80
2023-01-15T22:50:28.392Z,6.80
2023-01-15T22:53:02.268Z,6.79
2023-01-15T22:55:36.805Z,6.78
2023-01-15T22:58:10.350Z,6.75
2023-01-15T23:00:43.965Z,6.75
2023-01-15T23:03:17.688Z,6.76
2023-01-15T23:05:51.149Z,6.77
2023-01-15T23:08:26.775Z,6.76
2023-01-15T23:11:00.297Z,6.76
2023-01-15T23:13:35.622Z,6.75
2023-01-15T23:16:10.205Z,6.74
2023-01-15T23:18:43.611Z,6.74
2023-01-15T23:21:20.016Z,6.74
2023-01-15T23:23:56.997Z,6.73
2023-01-15T23:26:33.043Z,6.73
2023-01-15T23:29:07.257Z,6.71
2023-01-15T23:31:40.911Z,6.68
2023-01-15T23:34:14.540Z,6.65
2023-01-15T23:36:48.173Z,6.64
2023-01-15T23:39:22.082Z,6.64
2023-01-15T23:42:13.327Z,6.64
2023-01-15T23:45:04.527Z,6.63
2023-01-15T23:47:38.346Z,6.62
2023-01-15T23:50:13.281Z,6.61
2023-01-15T23:52:47.774Z,6.62
2023-01-15T23:55:21.800Z,6.62
2023-01-15T23:57:55.371Z,6.61
